createdAt,value
2023-05-08T00:00:29.354Z,1.05
2023-05-08T00:01:29.356Z,1.05
2023-05-08T00:02:29.453Z,1.07
2023-05-08T00:03:29.527Z,1.07
2023-05-08T00:04:29.410Z,1.07
2023-05-08T00:05:29.436Z,1.06
2023-05-08T00:06:29.423Z,1.04
2023-05-08T00:07:29.454Z,1.02
2023-05-08T00:08:29.427Z,1.05
2023-05-08T00:09:29.471Z,1.05
2023-05-08T00:10:29.475Z,1.02
2023-05-08T00:11:29.516Z,1.03
2023-05-08T00:12:29.532Z,1.04
2023-05-08T00:13:29.520Z,1.05
2023-05-08T00:14:29.553Z,1.02
2023-05-08T00:15:29.540Z,1.05
2023-05-08T00:16:29.617Z,1.04
2023-05-08T00:17:29.592Z,1.06
2023-05-08T00:18:29.559Z,1.06
2023-05-08T00:19:29.563Z,1.07
2023-05-08T00:20:29.560Z,1.08
2023-05-08T00:21:29.589Z,1.03
2023-05-08T00:22:29.590Z,1.05
2023-05-08T00:23:29.604Z,1.00
2023-05-08T00:24:29.624Z,1.04
2023-05-08T00:25:29.638Z,1.07
2023-05-08T00:26:29.633Z,1.05
2023-05-08T00:27:29.638Z,1.05
2023-05-08T00:28:29.648Z,1.03
2023-05-08T00:29:29.707Z,1.04
2023-05-08T00:30:29.703Z,1.04
2023-05-08T00:31:29.757Z,1.04
2023-05-08T00:32:29.780Z,1.04
2023-05-08T00:33:29.707Z,1.02
2023-05-08T00:34:29.723Z,1.04
2023-05-08T00:35:29.743Z,1.03
2023-05-08T00:36:29.774Z,1.06
2023-05-08T00:37:29.789Z,1.03
2023-05-08T00:38:29.801Z,1.04
2023-05-08T00:39:29.819Z,1.03
2023-05-08T00:40:29.811Z,1.03
2023-05-08T00:41:29.845Z,1.02
2023-05-08T00:42:29.824Z,1.01
2023-05-08T00:43:29.825Z,1.03
2023-05-08T00:44:29.862Z,1.02
2023-05-08T00:45:29.954Z,1.02
2023-05-08T00:46:29.864Z,1.03
2023-05-08T00:47:29.869Z,1.04
2023-05-08T00:48:29.828Z,1.02
2023-05-08T00:49:29.835Z,1.05
2023-05-08T00:50:29.850Z,1.04
2023-05-08T00:51:29.856Z,1.06
2023-05-08T00:52:29.842Z,1.05
2023-05-08T00:53:29.837Z,1.04
2023-05-08T00:54:29.852Z,1.03
2023-05-08T00:55:29.858Z,1.02
2023-05-08T00:56:29.844Z,1.04
2023-05-08T00:57:29.846Z,1.04
2023-05-08T00:58:29.846Z,1.04
2023-05-08T00:59:29.863Z,1.03
2023-05-08T01:00:29.821Z,1.02
2023-05-08T01:01:29.882Z,1.04
2023-05-08T01:02:29.935Z,1.04
2023-05-08T01:03:29.930Z,1.03
2023-05-08T01:04:29.858Z,1.03
2023-05-08T01:05:29.815Z,1.04
2023-05-08T01:06:29.832Z,1.02
2023-05-08T01:07:29.809Z,1.03
2023-05-08T01:08:29.819Z,1.04
2023-05-08T01:09:29.830Z,1.04
2023-05-08T01:10:29.845Z,1.04
2023-05-08T01:11:29.833Z,1.06
2023-05-08T01:12:29.828Z,1.05
2023-05-08T01:13:29.838Z,1.04
2023-05-08T01:14:29.849Z,1.06
2023-05-08T01:15:29.844Z,1.05
2023-05-08T01:16:29.887Z,1.06
2023-05-08T01:17:29.907Z,1.05
2023-05-08T01:18:29.846Z,1.07
2023-05-08T01:19:29.840Z,1.07
2023-05-08T01:20:29.824Z,1.07
2023-05-08T01:21:29.827Z,1.09
2023-05-08T01:22:29.825Z,1.06
2023-05-08T01:23:29.839Z,1.07
2023-05-08T01:24:29.849Z,1.09
2023-05-08T01:25:29.796Z,1.07
2023-05-08T01:26:29.808Z,1.08
2023-05-08T01:27:29.814Z,1.05
2023-05-08T01:28:29.788Z,1.05
2023-05-08T01:29:29.790Z,1.07
2023-05-08T01:30:29.867Z,1.07
2023-05-08T01:31:29.796Z,1.07
2023-05-08T01:32:29.802Z,1.08
2023-05-08T01:33:29.838Z,1.11
2023-05-08T01:34:29.868Z,1.08
2023-05-08T01:35:29.775Z,1.08
2023-05-08T01:36:29.768Z,1.06
2023-05-08T01:37:29.754Z,1.08
2023-05-08T01:38:29.769Z,1.07
2023-05-08T01:39:29.802Z,1.06
2023-05-08T01:40:29.747Z,1.08
2023-05-08T01:41:29.758Z,1.07
2023-05-08T01:42:29.740Z,1.07
2023-05-08T01:43:29.755Z,1.09
2023-05-08T01:44:29.754Z,1.07
2023-05-08T01:45:29.725Z,1.08
2023-05-08T01:46:29.755Z,1.07
2023-05-08T01:47:29.793Z,1.09
2023-05-08T01:48:29.756Z,1.07
2023-05-08T01:49:29.738Z,1.11
2023-05-08T01:50:29.700Z,1.10
2023-05-08T01:51:29.701Z,1.09
2023-05-08T01:52:29.803Z,1.10
2023-05-08T01:53:29.691Z,1.11
2023-05-08T01:54:29.742Z,1.08
2023-05-08T01:55:29.737Z,1.08
2023-05-08T01:56:29.700Z,1.10
2023-05-08T01:57:29.697Z,1.10
2023-05-08T01:58:29.691Z,1.08
2023-05-08T01:59:29.718Z,1.10
2023-05-08T02:00:29.717Z,1.13
2023-05-08T02:01:29.710Z,1.09
2023-05-08T02:02:29.750Z,1.11
2023-05-08T02:03:29.789Z,1.09
2023-05-08T02:04:29.704Z,1.09
2023-05-08T02:05:29.686Z,1.08
2023-05-08T02:06:29.695Z,1.10
2023-05-08T02:07:29.665Z,1.08
2023-05-08T02:08:29.680Z,1.06
2023-05-08T02:09:29.675Z,1.08
2023-05-08T02:10:29.649Z,1.10
2023-05-08T02:11:29.654Z,1.08
2023-05-08T02:12:29.653Z,1.10
2023-05-08T02:13:29.632Z,1.06
2023-05-08T02:14:29.678Z,1.11
2023-05-08T02:15:29.602Z,1.10
2023-05-08T02:16:29.726Z,1.11
2023-05-08T02:17:29.633Z,1.12
2023-05-08T02:18:29.600Z,1.12
2023-05-08T02:19:29.641Z,1.09
2023-05-08T02:20:29.600Z,1.08
2023-05-08T02:21:29.619Z,1.08
2023-05-08T02:22:29.588Z,1.10
2023-05-08T02:23:29.572Z,1.08
2023-05-08T02:24:29.620Z,1.08
2023-05-08T02:25:29.591Z,1.09
2023-05-08T02:26:29.601Z,1.08
2023-05-08T02:27:29.558Z,1.09
2023-05-08T02:28:29.562Z,1.07
2023-05-08T02:29:29.601Z,1.07
2023-05-08T02:30:29.589Z,1.09
2023-05-08T02:31:29.643Z,1.09
2023-05-08T02:32:29.586Z,1.09
2023-05-08T02:33:29.565Z,1.10
2023-05-08T02:34:29.599Z,1.08
2023-05-08T02:35:29.566Z,1.09
2023-05-08T02:36:29.572Z,1.06
2023-05-08T02:37:29.555Z,1.09
2023-05-08T02:38:29.585Z,1.09
2023-05-08T02:39:29.595Z,1.09
2023-05-08T02:40:29.580Z,1.10
2023-05-08T02:41:29.610Z,1.09
2023-05-08T02:42:29.577Z,1.11
2023-05-08T02:43:29.574Z,1.12
2023-05-08T02:44:29.591Z,1.11
2023-05-08T02:45:29.606Z,1.09
2023-05-08T02:46:29.670Z,1.09
2023-05-08T02:47:29.589Z,1.13
2023-05-08T02:48:29.555Z,1.08
2023-05-08T02:49:29.586Z,1.10
2023-05-08T02:50:29.541Z,1.11
2023-05-08T02:51:29.610Z,1.11
2023-05-08T02:52:29.572Z,1.10
2023-05-08T02:53:29.553Z,1.11
2023-05-08T02:54:29.563Z,1.07
2023-05-08T02:55:29.572Z,1.09
2023-05-08T02:56:29.644Z,1.09
2023-05-08T02:57:29.566Z,1.10
2023-05-08T02:58:29.636Z,1.08
2023-05-08T02:59:29.603Z,1.07
2023-05-08T03:00:29.587Z,1.09
2023-05-08T03:01:29.615Z,1.10
2023-05-08T03:02:29.694Z,1.11
2023-05-08T03:03:29.620Z,1.11
2023-05-08T03:04:29.584Z,1.12
2023-05-08T03:05:29.560Z,1.10
2023-05-08T03:06:29.588Z,1.13
2023-05-08T03:07:29.566Z,1.12
2023-05-08T03:08:29.569Z,1.11
2023-05-08T03:09:29.600Z,1.11
2023-05-08T03:10:29.570Z,1.13
2023-05-08T03:11:29.574Z,1.16
2023-05-08T03:12:29.631Z,1.13
2023-05-08T03:13:29.656Z,1.13
2023-05-08T03:14:29.581Z,1.10
2023-05-08T03:15:29.600Z,1.10
2023-05-08T03:16:29.593Z,1.13
2023-05-08T03:17:29.606Z,1.12
2023-05-08T03:18:29.604Z,1.11
2023-05-08T03:19:29.615Z,1.11
2023-05-08T03:20:29.654Z,1.11
2023-05-08T03:21:29.614Z,1.11
2023-05-08T03:22:29.636Z,1.11
2023-05-08T03:23:29.633Z,1.12
2023-05-08T03:24:29.663Z,1.10
2023-05-08T03:25:29.662Z,1.12
2023-05-08T03:26:29.657Z,1.09
2023-05-08T03:27:29.659Z,1.11
2023-05-08T03:28:29.661Z,1.12
2023-05-08T03:29:29.684Z,1.12
2023-05-08T03:30:29.654Z,1.11
2023-05-08T03:31:29.705Z,1.11
2023-05-08T03:32:29.678Z,1.11
2023-05-08T03:33:29.674Z,1.11
2023-05-08T03:34:38.241Z,1.12
2023-05-08T03:35:29.881Z,1.12
2023-05-08T03:36:29.939Z,1.13
2023-05-08T03:37:29.950Z,1.13
2023-05-08T03:38:29.943Z,1.14
2023-05-08T03:39:29.945Z,1.14
2023-05-08T03:40:29.956Z,1.13
2023-05-08T03:41:29.956Z,1.11
2023-05-08T03:42:30.020Z,1.15
2023-05-08T03:43:29.965Z,1.12
2023-05-08T03:44:29.988Z,1.11
2023-05-08T03:45:29.990Z,1.12
2023-05-08T03:46:30.017Z,1.12
2023-05-08T03:47:30.461Z,1.12
2023-05-08T03:48:30.002Z,1.11
2023-05-08T03:49:29.998Z,1.12
2023-05-08T03:50:30.007Z,1.15
2023-05-08T03:51:30.009Z,1.12
2023-05-08T03:52:30.028Z,1.11
2023-05-08T03:53:30.009Z,1.12
2023-05-08T03:54:29.999Z,1.13
2023-05-08T03:55:30.013Z,1.12
2023-05-08T03:56:30.017Z,1.10
2023-05-08T03:57:30.027Z,1.10
2023-05-08T03:58:30.018Z,1.10
2023-05-08T03:59:30.033Z,1.13
2023-05-08T04:00:30.019Z,1.13
2023-05-08T04:01:30.082Z,1.11
2023-05-08T04:02:30.067Z,1.12
2023-05-08T04:03:30.095Z,1.14
2023-05-08T04:04:30.004Z,1.13
2023-05-08T04:05:30.028Z,1.13
2023-05-08T04:06:32.981Z,1.15
2023-05-08T04:07:30.996Z,1.15
2023-05-08T04:08:29.974Z,1.16
2023-05-08T04:09:30.002Z,1.16
2023-05-08T04:10:30.423Z,1.13
2023-05-08T04:11:29.967Z,1.11
2023-05-08T04:12:29.950Z,1.14
2023-05-08T04:13:30.036Z,1.13
2023-05-08T04:14:29.945Z,1.10
2023-05-08T04:15:29.950Z,1.13
2023-05-08T04:16:30.048Z,1.12
2023-05-08T04:17:30.010Z,1.14
2023-05-08T04:18:29.924Z,1.11
2023-05-08T04:19:29.924Z,1.12
2023-05-08T04:20:29.964Z,1.13
2023-05-08T04:21:29.893Z,1.15
2023-05-08T04:22:29.907Z,1.13
2023-05-08T04:23:29.901Z,1.15
2023-05-08T04:24:29.866Z,1.13
2023-05-08T04:25:29.916Z,1.12
2023-05-08T04:26:29.866Z,1.12
2023-05-08T04:27:29.867Z,1.13
2023-05-08T04:28:29.840Z,1.14
2023-05-08T04:29:29.870Z,1.14
2023-05-08T04:30:29.881Z,1.10
2023-05-08T04:31:29.850Z,1.15
2023-05-08T04:32:29.852Z,1.14
2023-05-08T04:33:29.802Z,1.12
2023-05-08T04:34:29.850Z,1.13
2023-05-08T04:35:29.814Z,1.14
2023-05-08T04:36:29.846Z,1.12
2023-05-08T04:37:29.802Z,1.12
2023-05-08T04:38:29.794Z,1.12
2023-05-08T04:39:29.782Z,1.11
2023-05-08T04:40:29.804Z,1.13
2023-05-08T04:41:29.866Z,1.12
2023-05-08T04:42:29.788Z,1.11
2023-05-08T04:43:29.831Z,1.13
2023-05-08T04:44:29.815Z,1.12
2023-05-08T04:45:29.795Z,1.13
2023-05-08T04:46:29.854Z,1.12
2023-05-08T04:47:29.866Z,1.13
2023-05-08T04:48:29.898Z,1.13
2023-05-08T04:49:29.843Z,1.13
2023-05-08T04:50:29.833Z,1.12
2023-05-08T04:51:29.804Z,1.13
2023-05-08T04:52:29.810Z,1.14
2023-05-08T04:53:29.832Z,1.12
2023-05-08T04:54:29.815Z,1.14
2023-05-08T04:55:29.827Z,1.13
2023-05-08T04:56:29.815Z,1.16
2023-05-08T04:57:29.820Z,1.14
2023-05-08T04:58:29.861Z,1.12
2023-05-08T04:59:29.838Z,1.13
2023-05-08T05:00:29.874Z,1.13
2023-05-08T05:01:29.919Z,1.14
2023-05-08T05:02:29.939Z,1.13
2023-05-08T05:03:29.919Z,1.13
2023-05-08T05:04:29.897Z,1.12
2023-05-08T05:05:29.921Z,1.11
2023-05-08T05:06:29.925Z,1.13
2023-05-08T05:07:29.915Z,1.13
2023-05-08T05:08:29.926Z,1.12
2023-05-08T05:09:29.932Z,1.15
2023-05-08T05:10:29.952Z,1.15
2023-05-08T05:11:29.940Z,1.13
2023-05-08T05:12:29.936Z,1.11
2023-05-08T05:13:29.959Z,1.12
2023-05-08T05:14:29.920Z,1.14
2023-05-08T05:15:29.933Z,1.14
2023-05-08T05:16:29.952Z,1.14
2023-05-08T05:17:29.921Z,1.12
2023-05-08T05:18:29.951Z,1.11
2023-05-08T05:19:29.916Z,1.12
2023-05-08T05:20:29.933Z,1.13
2023-05-08T05:21:29.946Z,1.14
2023-05-08T05:22:29.966Z,1.12
2023-05-08T05:23:29.928Z,1.12
2023-05-08T05:24:30.054Z,1.14
2023-05-08T05:25:30.025Z,1.11
2023-05-08T05:26:29.959Z,1.14
2023-05-08T05:27:29.959Z,1.13
2023-05-08T05:28:30.035Z,1.12
2023-05-08T05:29:29.998Z,1.13
2023-05-08T05:30:30.006Z,1.14
2023-05-08T05:31:30.069Z,1.14
2023-05-08T05:32:30.054Z,1.12
2023-05-08T05:33:29.971Z,1.13
2023-05-08T05:34:30.000Z,1.14
2023-05-08T05:35:30.062Z,1.13
2023-05-08T05:36:30.074Z,1.16
2023-05-08T05:37:30.088Z,1.26
2023-05-08T05:38:30.030Z,1.83
2023-05-08T05:39:30.083Z,2.14
2023-05-08T05:40:30.031Z,2.05
2023-05-08T05:41:30.026Z,1.94
2023-05-08T05:42:30.054Z,2.15
2023-05-08T05:43:30.959Z,2.28
2023-05-08T05:44:30.075Z,2.52
2023-05-08T05:45:32.553Z,2.72
2023-05-08T05:46:30.091Z,3.10
2023-05-08T05:47:30.093Z,3.20
2023-05-08T05:48:30.115Z,3.36
2023-05-08T05:49:30.205Z,3.45
2023-05-08T05:50:30.086Z,3.97
2023-05-08T05:51:30.255Z,4.11
2023-05-08T05:52:30.109Z,4.25
2023-05-08T05:53:30.033Z,4.48
2023-05-08T05:54:30.035Z,4.77
2023-05-08T05:55:30.031Z,5.07
2023-05-08T05:56:30.032Z,5.47
2023-05-08T05:57:30.000Z,5.72
2023-05-08T05:58:30.010Z,5.96
2023-05-08T05:59:29.996Z,6.17
2023-05-08T06:00:30.005Z,6.50
2023-05-08T06:01:29.984Z,6.87
2023-05-08T06:02:30.046Z,7.08
2023-05-08T06:03:30.086Z,7.31
2023-05-08T06:04:30.102Z,7.66
2023-05-08T06:05:30.156Z,8.00
2023-05-08T06:06:29.962Z,8.36
2023-05-08T06:07:29.989Z,8.68
2023-05-08T06:08:29.942Z,8.72
2023-05-08T06:09:29.954Z,8.62
2023-05-08T06:10:29.975Z,9.02
2023-05-08T06:11:29.920Z,9.08
2023-05-08T06:12:29.913Z,9.51
2023-05-08T06:13:30.150Z,10.00
2023-05-08T06:14:29.892Z,10.44
2023-05-08T06:15:29.941Z,10.88
2023-05-08T06:16:29.941Z,10.90
2023-05-08T06:17:29.986Z,12.17
2023-05-08T06:18:29.893Z,12.43
2023-05-08T06:19:29.890Z,12.32
2023-05-08T06:20:29.920Z,12.78
2023-05-08T06:21:29.869Z,13.17
2023-05-08T06:22:29.901Z,12.75
2023-05-08T06:23:29.849Z,12.92
2023-05-08T06:24:29.828Z,13.46
2023-05-08T06:25:29.904Z,13.59
2023-05-08T06:26:29.935Z,13.96
2023-05-08T06:27:29.884Z,14.44
2023-05-08T06:28:29.923Z,14.51
2023-05-08T06:29:29.982Z,14.91
2023-05-08T06:30:29.984Z,15.70
2023-05-08T06:31:30.088Z,15.32
2023-05-08T06:32:30.094Z,15.36
2023-05-08T06:33:30.097Z,16.08
2023-05-08T06:34:30.193Z,16.33
2023-05-08T06:35:30.189Z,17.37
2023-05-08T06:36:30.232Z,17.14
2023-05-08T06:37:30.228Z,16.47
2023-05-08T06:38:30.250Z,15.36
2023-05-08T06:39:30.369Z,14.57
2023-05-08T06:40:30.281Z,13.34
2023-05-08T06:41:30.311Z,12.42
2023-05-08T06:42:30.379Z,11.67
2023-05-08T06:43:30.402Z,10.09
2023-05-08T06:44:30.410Z,8.76
2023-05-08T06:45:30.451Z,7.69
2023-05-08T06:46:30.513Z,7.25
2023-05-08T06:47:30.547Z,7.06
2023-05-08T06:48:30.563Z,6.68
2023-05-08T06:49:30.621Z,6.18
2023-05-08T06:50:30.677Z,5.71
2023-05-08T06:51:30.689Z,5.22
2023-05-08T06:52:30.757Z,4.91
2023-05-08T06:53:30.795Z,4.69
2023-05-08T06:54:30.876Z,4.49
2023-05-08T06:55:30.967Z,4.39
2023-05-08T06:56:30.971Z,4.20
2023-05-08T06:57:31.036Z,4.00
2023-05-08T06:58:31.073Z,3.78
2023-05-08T06:59:31.171Z,3.60
2023-05-08T07:00:31.511Z,3.44
2023-05-08T07:01:31.295Z,3.35
2023-05-08T07:02:31.354Z,3.11
2023-05-08T07:03:31.401Z,3.20
2023-05-08T07:04:32.181Z,3.21
2023-05-08T07:05:31.512Z,2.89
2023-05-08T07:06:31.564Z,2.79
2023-05-08T07:07:31.625Z,2.64
2023-05-08T07:08:31.692Z,2.56
2023-05-08T07:09:31.745Z,2.54
2023-05-08T07:10:31.809Z,2.90
2023-05-08T07:11:31.855Z,3.48
2023-05-08T07:12:31.968Z,3.46
2023-05-08T07:13:32.040Z,3.06
2023-05-08T07:14:32.055Z,2.79
2023-05-08T07:15:32.231Z,2.68
2023-05-08T07:16:32.228Z,2.54
2023-05-08T07:17:32.373Z,2.45
2023-05-08T07:18:32.313Z,2.36
2023-05-08T07:19:32.363Z,2.24
2023-05-08T07:20:32.418Z,2.28
2023-05-08T07:21:32.480Z,2.19
2023-05-08T07:22:32.655Z,2.13
2023-05-08T07:23:32.568Z,2.06
2023-05-08T07:24:32.599Z,1.99
2023-05-08T07:25:32.611Z,1.96
2023-05-08T07:26:32.638Z,1.99
2023-05-08T07:27:32.717Z,2.01
2023-05-08T07:28:32.737Z,1.98
2023-05-08T07:29:32.816Z,1.93
2023-05-08T07:30:33.010Z,2.04
2023-05-08T07:31:32.929Z,2.13
2023-05-08T07:32:32.973Z,2.04
2023-05-08T07:33:33.068Z,2.08
2023-05-08T07:34:33.187Z,2.04
2023-05-08T07:35:33.503Z,2.08
2023-05-08T07:36:33.194Z,2.14
2023-05-08T07:37:34.014Z,2.16
2023-05-08T07:38:33.307Z,2.07
2023-05-08T07:39:33.433Z,1.95
2023-05-08T07:40:33.470Z,1.85
2023-05-08T07:41:33.514Z,1.84
2023-05-08T07:42:34.045Z,1.98
2023-05-08T07:43:33.602Z,2.07
2023-05-08T07:44:43.527Z,2.19
2023-05-08T07:45:34.708Z,2.20
2023-05-08T07:46:33.713Z,2.22
2023-05-08T07:47:33.731Z,2.30
2023-05-08T07:48:33.660Z,2.47
2023-05-08T07:49:33.639Z,2.83
2023-05-08T07:50:34.024Z,2.90
2023-05-08T07:51:34.552Z,3.06
2023-05-08T07:52:33.636Z,3.28
2023-05-08T07:53:33.598Z,3.37
2023-05-08T07:54:33.607Z,3.48
2023-05-08T07:55:33.680Z,3.58
2023-05-08T07:56:33.689Z,3.73
2023-05-08T07:57:33.766Z,3.82
2023-05-08T07:58:33.865Z,4.01
2023-05-08T07:59:33.841Z,4.08
2023-05-08T08:00:34.103Z,4.21
2023-05-08T08:01:33.932Z,4.45
2023-05-08T08:02:34.081Z,4.55
2023-05-08T08:03:34.194Z,4.87
2023-05-08T08:04:34.143Z,4.95
2023-05-08T08:05:34.068Z,5.05
2023-05-08T08:06:34.118Z,5.25
2023-05-08T08:07:34.414Z,5.52
2023-05-08T08:08:34.175Z,5.62
2023-05-08T08:09:34.211Z,5.85
2023-05-08T08:10:34.288Z,6.04
2023-05-08T08:11:34.274Z,6.22
2023-05-08T08:12:34.307Z,6.02
2023-05-08T08:13:34.425Z,6.27
2023-05-08T08:14:34.410Z,6.31
2023-05-08T08:15:34.456Z,6.69
2023-05-08T08:16:34.555Z,6.79
2023-05-08T08:17:34.461Z,6.93
2023-05-08T08:18:34.501Z,7.20
2023-05-08T08:19:34.508Z,7.36
2023-05-08T08:20:34.544Z,7.67
2023-05-08T08:21:34.516Z,7.82
2023-05-08T08:22:34.581Z,8.06
2023-05-08T08:23:34.581Z,8.32
2023-05-08T08:24:34.726Z,8.71
2023-05-08T08:25:34.645Z,8.92
2023-05-08T08:26:34.676Z,8.66
2023-05-08T08:27:34.797Z,9.08
2023-05-08T08:28:34.772Z,8.87
2023-05-08T08:29:35.196Z,8.96
2023-05-08T08:30:34.781Z,8.89
2023-05-08T08:31:35.010Z,9.03
2023-05-08T08:32:34.937Z,8.83
2023-05-08T08:33:34.867Z,8.54
2023-05-08T08:34:34.904Z,8.68
2023-05-08T08:35:34.923Z,8.68
2023-05-08T08:36:34.954Z,8.42
2023-05-08T08:37:35.019Z,8.38
2023-05-08T08:38:35.036Z,8.30
2023-05-08T08:39:35.067Z,7.98
2023-05-08T08:40:35.077Z,7.68
2023-05-08T08:41:35.089Z,7.82
2023-05-08T08:42:35.445Z,8.02
2023-05-08T08:43:36.428Z,8.00
2023-05-08T08:44:37.217Z,8.00
2023-05-08T08:45:35.244Z,7.98
2023-05-08T08:46:35.209Z,6.84
2023-05-08T08:47:35.174Z,6.11
2023-05-08T08:48:35.262Z,5.44
2023-05-08T08:49:35.195Z,5.21
2023-05-08T08:50:35.321Z,4.95
2023-05-08T08:51:35.223Z,4.61
2023-05-08T08:52:35.202Z,4.33
2023-05-08T08:53:35.126Z,4.40
2023-05-08T08:54:35.122Z,4.44
2023-05-08T08:55:35.189Z,4.59
2023-05-08T08:56:35.118Z,4.71
2023-05-08T08:57:35.149Z,4.87
2023-05-08T08:58:36.651Z,4.78
2023-05-08T08:59:35.118Z,4.78
2023-05-08T09:00:35.127Z,4.73
2023-05-08T09:01:35.191Z,4.49
2023-05-08T09:02:35.134Z,3.79
2023-05-08T09:03:35.141Z,3.84
2023-05-08T09:04:35.172Z,4.08
2023-05-08T09:05:35.103Z,4.28
2023-05-08T09:06:35.044Z,4.04
2023-05-08T09:07:35.228Z,4.13
2023-05-08T09:08:35.034Z,4.19
2023-05-08T09:09:35.039Z,4.08
2023-05-08T09:10:35.070Z,3.98
2023-05-08T09:11:35.024Z,3.93
2023-05-08T09:12:35.062Z,3.95
2023-05-08T09:13:35.088Z,3.76
2023-05-08T09:14:35.005Z,3.75
2023-05-08T09:15:35.007Z,3.78
2023-05-08T09:16:35.165Z,3.73
2023-05-08T09:17:34.998Z,3.68
2023-05-08T09:18:34.986Z,3.52
2023-05-08T09:19:35.091Z,3.19
2023-05-08T09:20:35.143Z,3.41
2023-05-08T09:21:34.953Z,3.48
2023-05-08T09:22:34.959Z,3.36
2023-05-08T09:23:34.947Z,3.30
2023-05-08T09:24:34.933Z,3.46
2023-05-08T09:25:34.948Z,3.43
2023-05-08T09:26:34.959Z,3.54
2023-05-08T09:27:34.927Z,3.66
2023-05-08T09:28:34.933Z,3.18
2023-05-08T09:29:34.897Z,3.12
2023-05-08T09:30:34.902Z,3.25
2023-05-08T09:31:34.916Z,3.12
2023-05-08T09:32:35.043Z,2.63
2023-05-08T09:33:34.928Z,2.61
2023-05-08T09:34:34.895Z,2.57
2023-05-08T09:35:35.072Z,2.71
2023-05-08T09:36:35.063Z,2.38
2023-05-08T09:37:34.913Z,2.11
2023-05-08T09:38:34.893Z,1.99
2023-05-08T09:39:34.920Z,1.75
2023-05-08T09:40:35.027Z,1.63
2023-05-08T09:41:35.690Z,1.56
2023-05-08T09:42:35.045Z,1.41
2023-05-08T09:43:35.594Z,1.36
2023-05-08T09:44:35.115Z,1.27
2023-05-08T09:45:35.697Z,1.29
2023-05-08T09:46:35.588Z,1.19
2023-05-08T09:47:35.450Z,1.17
2023-05-08T09:48:35.403Z,1.15
2023-05-08T09:49:35.403Z,1.12
2023-05-08T09:50:36.051Z,1.07
2023-05-08T09:51:35.514Z,1.06
2023-05-08T09:52:35.667Z,1.03
2023-05-08T09:53:36.183Z,1.03
2023-05-08T09:54:35.719Z,1.01
2023-05-08T09:55:35.783Z,0.94
2023-05-08T09:56:35.862Z,0.87
2023-05-08T09:57:35.906Z,0.85
2023-05-08T09:58:35.996Z,0.83
2023-05-08T09:59:36.026Z,0.79
2023-05-08T10:00:36.083Z,0.76
2023-05-08T10:01:36.290Z,0.76
2023-05-08T10:02:36.232Z,0.68
2023-05-08T10:03:36.320Z,0.66
2023-05-08T10:04:36.527Z,0.64
2023-05-08T10:05:36.478Z,0.61
2023-05-08T10:06:36.607Z,0.61
2023-05-08T10:07:36.544Z,0.59
2023-05-08T10:08:36.674Z,0.57
2023-05-08T10:09:49.923Z,0.58
2023-05-08T10:10:37.614Z,0.58
2023-05-08T10:11:36.589Z,0.57
2023-05-08T10:12:36.602Z,0.56
2023-05-08T10:13:36.574Z,0.53
2023-05-08T10:14:36.830Z,0.54
2023-05-08T10:15:36.594Z,0.51
2023-05-08T10:16:36.650Z,0.51
2023-05-08T10:17:36.560Z,0.52
2023-05-08T10:18:36.535Z,0.50
2023-05-08T10:19:36.553Z,0.54
2023-05-08T10:20:36.512Z,0.54
2023-05-08T10:21:36.541Z,0.55
2023-05-08T10:22:36.557Z,0.54
2023-05-08T10:23:36.564Z,0.56
2023-05-08T10:24:36.677Z,0.53
2023-05-08T10:25:36.614Z,0.53
2023-05-08T10:26:36.650Z,0.63
2023-05-08T10:27:36.662Z,0.87
2023-05-08T10:28:36.760Z,1.04
2023-05-08T10:29:36.772Z,1.12
2023-05-08T10:30:36.768Z,1.05
2023-05-08T10:31:36.888Z,1.00
2023-05-08T10:32:36.954Z,0.97
2023-05-08T10:33:36.936Z,1.02
2023-05-08T10:34:37.010Z,1.13
2023-05-08T10:35:37.121Z,1.12
2023-05-08T10:36:37.150Z,1.15
2023-05-08T10:37:37.188Z,1.15
2023-05-08T10:38:37.260Z,1.18
2023-05-08T10:39:37.461Z,1.21
2023-05-08T10:40:37.487Z,1.24
2023-05-08T10:41:37.429Z,1.29
2023-05-08T10:42:37.493Z,1.31
2023-05-08T10:43:37.592Z,1.39
2023-05-08T10:44:37.613Z,1.48
2023-05-08T10:45:37.709Z,1.55
2023-05-08T10:46:37.762Z,1.58
2023-05-08T10:47:37.803Z,1.61
2023-05-08T10:48:37.927Z,1.65
2023-05-08T10:49:38.008Z,1.71
2023-05-08T10:50:38.087Z,1.79
2023-05-08T10:51:38.052Z,1.84
2023-05-08T10:52:38.128Z,1.95
2023-05-08T10:53:38.160Z,1.95
2023-05-08T10:54:38.240Z,2.03
2023-05-08T10:55:38.274Z,2.05
2023-05-08T10:56:38.401Z,2.05
2023-05-08T10:57:38.402Z,2.11
2023-05-08T10:58:38.579Z,2.21
2023-05-08T10:59:38.563Z,2.18
2023-05-08T11:00:38.584Z,2.24
2023-05-08T11:01:38.656Z,2.27
2023-05-08T11:02:38.759Z,2.26
2023-05-08T11:03:38.869Z,2.30
2023-05-08T11:04:38.894Z,2.35
2023-05-08T11:05:38.830Z,2.31
2023-05-08T11:06:38.912Z,2.32
2023-05-08T11:07:38.930Z,2.34
2023-05-08T11:08:39.071Z,2.36
2023-05-08T11:09:39.033Z,2.37
2023-05-08T11:10:39.089Z,2.39
2023-05-08T11:11:39.130Z,2.40
2023-05-08T11:12:39.182Z,2.43
2023-05-08T11:13:39.232Z,2.41
2023-05-08T11:14:39.343Z,2.47
2023-05-08T11:15:39.338Z,2.47
2023-05-08T11:16:39.560Z,2.53
2023-05-08T11:17:39.493Z,2.57
2023-05-08T11:18:49.024Z,2.55
2023-05-08T11:19:40.485Z,2.56
2023-05-08T11:20:39.528Z,2.57
2023-05-08T11:21:39.485Z,2.59
2023-05-08T11:22:39.485Z,2.63
2023-05-08T11:23:39.665Z,2.73
2023-05-08T11:24:39.466Z,2.79
2023-05-08T11:25:39.467Z,2.78
2023-05-08T11:26:39.462Z,2.77
2023-05-08T11:27:39.439Z,2.82
2023-05-08T11:28:39.445Z,2.82
2023-05-08T11:29:39.507Z,2.84
2023-05-08T11:30:39.554Z,2.84
2023-05-08T11:31:39.633Z,2.95
2023-05-08T11:32:39.648Z,2.78
2023-05-08T11:33:39.747Z,2.82
2023-05-08T11:34:39.728Z,2.85
2023-05-08T11:35:39.795Z,2.88
2023-05-08T11:36:39.830Z,2.88
2023-05-08T11:37:39.898Z,2.86
2023-05-08T11:38:39.961Z,2.84
2023-05-08T11:39:39.996Z,2.91
2023-05-08T11:40:40.039Z,2.88
2023-05-08T11:41:40.094Z,2.92
2023-05-08T11:42:40.109Z,2.95
2023-05-08T11:43:40.171Z,2.91
2023-05-08T11:44:40.246Z,2.94
2023-05-08T11:45:40.257Z,2.93
2023-05-08T11:46:40.405Z,2.95
2023-05-08T11:47:40.413Z,2.98
2023-05-08T11:48:40.470Z,2.94
2023-05-08T11:49:40.465Z,2.89
2023-05-08T11:50:40.527Z,3.04
2023-05-08T11:51:40.568Z,2.98
2023-05-08T11:52:40.602Z,2.94
2023-05-08T11:53:40.687Z,2.96
2023-05-08T11:54:40.804Z,3.00
2023-05-08T11:55:40.778Z,2.96
2023-05-08T11:56:40.823Z,2.96
2023-05-08T11:57:40.872Z,2.96
2023-05-08T11:58:40.917Z,3.00
2023-05-08T11:59:40.949Z,3.00
2023-05-08T12:00:41.014Z,2.96
2023-05-08T12:01:41.088Z,3.02
2023-05-08T12:02:41.176Z,2.95
2023-05-08T12:03:41.414Z,2.89
2023-05-08T12:04:41.246Z,2.92
2023-05-08T12:05:41.303Z,2.97
2023-05-08T12:06:41.309Z,2.95
2023-05-08T12:07:41.341Z,2.92
2023-05-08T12:08:41.381Z,2.90
2023-05-08T12:09:41.438Z,2.89
2023-05-08T12:10:41.476Z,2.81
2023-05-08T12:11:41.528Z,2.87
2023-05-08T12:12:41.627Z,2.82
2023-05-08T12:13:41.622Z,2.86
2023-05-08T12:14:41.632Z,2.79
2023-05-08T12:15:41.690Z,2.75
2023-05-08T12:16:41.835Z,2.77
2023-05-08T12:17:41.971Z,2.76
2023-05-08T12:18:41.824Z,2.71
2023-05-08T12:19:41.896Z,2.77
2023-05-08T12:20:41.903Z,2.69
2023-05-08T12:21:41.977Z,2.68
2023-05-08T12:22:42.045Z,2.69
2023-05-08T12:23:42.054Z,2.67
2023-05-08T12:24:42.096Z,2.67
2023-05-08T12:25:42.155Z,2.68
2023-05-08T12:26:42.232Z,2.72
2023-05-08T12:27:42.224Z,2.65
2023-05-08T12:28:42.305Z,2.67
2023-05-08T12:29:42.309Z,2.65
2023-05-08T12:30:42.392Z,2.69
2023-05-08T12:31:42.420Z,2.64
2023-05-08T12:32:42.448Z,2.69
2023-05-08T12:33:42.484Z,2.67
2023-05-08T12:34:42.492Z,2.67
2023-05-08T12:35:42.550Z,2.66
2023-05-08T12:36:42.580Z,2.62
2023-05-08T12:37:42.619Z,2.67
2023-05-08T12:38:42.648Z,2.61
2023-05-08T12:39:42.707Z,2.58
2023-05-08T12:40:42.752Z,2.64
2023-05-08T12:41:42.793Z,2.61
2023-05-08T12:42:42.900Z,2.52
2023-05-08T12:43:42.868Z,2.53
2023-05-08T12:44:42.933Z,2.53
2023-05-08T12:45:43.138Z,2.56
2023-05-08T12:46:43.058Z,2.56
2023-05-08T12:47:43.097Z,2.52
2023-05-08T12:48:43.224Z,2.51
2023-05-08T12:49:43.148Z,2.53
2023-05-08T12:50:43.225Z,2.57
2023-05-08T12:51:43.334Z,2.50
2023-05-08T12:52:43.304Z,2.52
2023-05-08T12:53:43.353Z,2.47
2023-05-08T12:54:43.400Z,2.53
2023-05-08T12:55:43.426Z,2.55
2023-05-08T12:56:43.469Z,2.48
2023-05-08T12:57:43.528Z,2.49
2023-05-08T12:58:43.552Z,2.49
2023-05-08T12:59:43.634Z,2.53
2023-05-08T13:00:43.705Z,2.50
2023-05-08T13:01:43.793Z,2.54
2023-05-08T13:02:49.491Z,2.62
2023-05-08T13:03:50.681Z,2.63
2023-05-08T13:04:44.887Z,2.63
2023-05-08T13:05:43.833Z,2.64
2023-05-08T13:06:43.782Z,2.62
2023-05-08T13:07:43.738Z,2.60
2023-05-08T13:08:43.781Z,2.58
2023-05-08T13:09:43.705Z,2.61
2023-05-08T13:10:43.703Z,2.54
2023-05-08T13:11:43.708Z,2.55
2023-05-08T13:12:43.718Z,2.59
2023-05-08T13:13:43.694Z,2.55
2023-05-08T13:14:43.711Z,2.53
2023-05-08T13:15:43.700Z,2.46
2023-05-08T13:16:43.735Z,2.44
2023-05-08T13:17:43.779Z,2.50